Briefing drone pour Lorette

Rechercher une autre localisation

Conditions de vol :


Nous sommes le : Mardi 27 septembre 2022
Il est 14:20 UTC (16:20 LT)

Lever de soleil : 05:08 UTC (07:08 LT)
Coucher de soleil : 17:57 UTC (19:57 LT)

Météo

L'essentiel des conditions de vol

VIGILANCE MÉTÉO FRANCE - Loire (42)
Pas de vigilances particulieres
METAR de LFMH
LFMH 271400Z AUTO 29009KT 250V320 9999 SCT047 BKN056 OVC066 14/06 Q1009

Date d'émission: 27/09/2022
Heure d'émission: 14:00 UTC
Vent: 290° (variable du 250° au 320°) pour 9 KT (17 km/h)
Visibilité horizontale: > 10 km
Plafond :
- Nuages épars à 4700ft (1433m)
- Nuages morcelés à 5600ft (1707m)
- Couvert à 6600ft (2012m)
Température: 14 °C
Point de rosée: 6 °C
Humidité: 59%
Pression (QNH): 1009 hPa
TAF de LFMH
LFMH 161901Z 1619/1712 CNL

Conditions prévues :

Heure d'émission : Bulletin éffectué le 16 à 19:00 UTC
Prévision : Valide du 16 a 19:00 UTC au 17 a 12:00 UTC
Nuages : à 0ft (0 m)
WEBCAM POUR LORETTE

Réglementation

Voler en sécurité

CARTES AERONAUTIQUE 1/500.000
CARTE AZBA (Reseau basse altitude)
CARTES VAC (LFMH)
SUP AIP




Chargement des AIP...
NOTAM (LORETTE + Terrain à proximité / FIR )




Chargement des NOTAMS...
CONTACT PREFECTURE 42


Avertissement : Les données mises à disposition sont indicatives. Oxygène Drone ne pourra être tenu responsable de dégâts causés aux biens et aux personnes.